createdAt,value
2018-01-30T00:00:59.305Z,9.80
2018-01-30T00:03:26.805Z,9.80
2018-01-30T00:05:55.057Z,9.80
2018-01-30T00:08:22.556Z,9.80
2018-01-30T00:10:50.045Z,9.80
2018-01-30T00:13:17.564Z,9.80
2018-01-30T00:15:45.821Z,9.80
2018-01-30T00:18:13.422Z,9.80
2018-01-30T00:20:40.918Z,9.80
2018-01-30T00:23:08.449Z,9.80
2018-01-30T00:25:35.941Z,9.80
2018-01-30T00:28:03.441Z,9.80
2018-01-30T00:30:30.925Z,9.80
2018-01-30T00:32:58.463Z,9.80
2018-01-30T00:35:25.961Z,9.80
2018-01-30T00:37:53.482Z,9.90
2018-01-30T00:40:20.973Z,9.90
2018-01-30T00:42:48.486Z,9.90
2018-01-30T00:45:16.737Z,9.90
2018-01-30T00:47:44.253Z,9.90
2018-01-30T00:50:11.754Z,10.00
2018-01-30T00:52:39.277Z,10.00
2018-01-30T00:55:06.774Z,10.00
2018-01-30T00:57:34.269Z,10.00
2018-01-30T01:00:01.782Z,10.00
2018-01-30T01:02:29.283Z,10.00
2018-01-30T01:04:56.790Z,10.00
2018-01-30T01:07:24.290Z,10.10
2018-01-30T01:09:52.583Z,10.10
2018-01-30T01:12:20.090Z,10.10
2018-01-30T01:14:47.602Z,10.10
2018-01-30T01:17:15.093Z,10.10
2018-01-30T01:19:42.610Z,10.10
2018-01-30T01:22:10.106Z,10.10
2018-01-30T01:24:37.617Z,10.10
2018-01-30T01:27:05.873Z,10.10
2018-01-30T01:29:33.402Z,10.10
2018-01-30T01:32:00.893Z,10.10
2018-01-30T01:34:28.403Z,10.10
2018-01-30T01:36:55.902Z,10.10
2018-01-30T01:39:23.426Z,10.10
2018-01-30T01:41:50.916Z,10.20
2018-01-30T01:44:18.430Z,10.20
2018-01-30T01:46:45.929Z,10.20
2018-01-30T01:49:13.453Z,10.20
2018-01-30T01:51:40.958Z,10.10
2018-01-30T01:54:08.469Z,10.10
2018-01-30T01:56:35.987Z,10.10
2018-01-30T01:59:03.493Z,10.20
2018-01-30T02:01:31.009Z,10.20
2018-01-30T02:03:58.538Z,10.20
2018-01-30T02:06:26.045Z,10.20
2018-01-30T02:08:54.301Z,10.20
2018-01-30T02:11:22.589Z,10.20
2018-01-30T02:13:50.854Z,10.20
2018-01-30T02:16:19.149Z,10.20
2018-01-30T02:18:47.410Z,10.20
2018-01-30T02:21:14.921Z,10.20
2018-01-30T02:23:42.416Z,10.20
2018-01-30T02:26:09.926Z,10.10
2018-01-30T02:28:37.425Z,10.10
2018-01-30T02:31:04.935Z,10.10
2018-01-30T02:33:32.442Z,10.10
2018-01-30T02:35:59.949Z,10.00
2018-01-30T02:38:27.458Z,10.10
2018-01-30T02:40:54.975Z,10.10
2018-01-30T02:43:22.469Z,10.10
2018-01-30T02:45:49.977Z,10.10
2018-01-30T02:48:18.233Z,10.10
2018-01-30T02:50:45.768Z,10.10
2018-01-30T02:53:13.261Z,10.10
2018-01-30T02:55:41.522Z,10.10
2018-01-30T02:58:09.035Z,10.10
2018-01-30T03:00:36.530Z,10.10
2018-01-30T03:03:04.040Z,10.20
2018-01-30T03:05:31.542Z,10.20
2018-01-30T03:07:59.048Z,10.20
2018-01-30T03:10:26.549Z,10.10
2018-01-30T03:12:54.086Z,10.10
2018-01-30T03:15:21.581Z,10.10
2018-01-30T03:17:49.110Z,10.10
2018-01-30T03:20:16.603Z,10.20
2018-01-30T03:22:44.123Z,10.20
2018-01-30T03:25:11.625Z,10.10
2018-01-30T03:27:39.930Z,10.10
2018-01-30T03:30:07.446Z,10.10
2018-01-30T03:32:34.957Z,10.10
2018-01-30T03:35:02.461Z,10.10
2018-01-30T03:37:29.973Z,10.10
2018-01-30T03:39:57.469Z,10.10
2018-01-30T03:42:24.986Z,10.10
2018-01-30T03:44:52.489Z,10.10
2018-01-30T03:47:19.997Z,10.10
2018-01-30T03:49:47.496Z,10.10
2018-01-30T03:52:15.026Z,10.10
2018-01-30T03:54:42.526Z,10.10
2018-01-30T03:57:10.046Z,10.10
2018-01-30T03:59:37.631Z,10.10
2018-01-30T04:02:05.125Z,10.10
2018-01-30T04:04:32.639Z,10.10
2018-01-30T04:07:00.142Z,10.10
2018-01-30T04:09:27.665Z,10.10
2018-01-30T04:11:55.166Z,10.10
2018-01-30T04:14:22.682Z,10.10
2018-01-30T04:16:50.174Z,10.10
2018-01-30T04:19:19.201Z,10.10
2018-01-30T04:21:47.461Z,10.10
2018-01-30T04:24:14.970Z,10.10
2018-01-30T04:26:42.470Z,10.10
2018-01-30T04:29:09.974Z,10.00
2018-01-30T04:31:37.477Z,10.10
2018-01-30T04:34:05.030Z,10.10
2018-01-30T04:36:32.530Z,10.10
2018-01-30T04:39:00.814Z,10.10
2018-01-30T04:41:28.315Z,10.00
2018-01-30T04:43:55.826Z,10.00
2018-01-30T04:46:24.085Z,9.90
2018-01-30T04:48:51.593Z,9.90
2018-01-30T04:51:19.087Z,10.00
2018-01-30T04:53:46.607Z,10.00
2018-01-30T04:56:14.106Z,10.00
2018-01-30T04:58:41.622Z,10.00
2018-01-30T05:01:09.117Z,9.90
2018-01-30T05:03:36.630Z,9.90
2018-01-30T05:06:04.134Z,9.90
2018-01-30T05:08:31.629Z,9.90
2018-01-30T05:10:59.897Z,9.80
2018-01-30T05:13:28.178Z,9.80
2018-01-30T05:15:56.449Z,9.80
2018-01-30T05:18:24.717Z,9.70
2018-01-30T05:20:52.233Z,9.70
2018-01-30T05:23:19.721Z,9.70
2018-01-30T05:25:47.226Z,9.70
2018-01-30T05:28:14.738Z,9.70
2018-01-30T05:30:42.246Z,9.60
2018-01-30T05:33:09.736Z,9.60
2018-01-30T05:35:37.254Z,9.50
2018-01-30T05:38:05.521Z,9.50
2018-01-30T05:40:33.794Z,9.50
2018-01-30T05:43:02.057Z,9.40
2018-01-30T05:45:29.569Z,9.40
2018-01-30T05:47:57.058Z,9.40
2018-01-30T05:50:24.586Z,9.40
2018-01-30T05:52:52.077Z,9.30
2018-01-30T05:55:19.619Z,9.30
2018-01-30T05:57:47.126Z,9.30
2018-01-30T06:00:15.981Z,9.20
2018-01-30T06:02:43.465Z,9.20
2018-01-30T06:05:12.463Z,9.20
2018-01-30T06:07:40.733Z,9.20
2018-01-30T06:10:08.985Z,9.20
2018-01-30T06:12:36.514Z,9.20
2018-01-30T06:15:04.004Z,9.20
2018-01-30T06:17:31.509Z,9.20
2018-01-30T06:19:59.760Z,9.10
2018-01-30T06:22:28.044Z,9.10
2018-01-30T06:24:56.296Z,9.10
2018-01-30T06:27:23.810Z,9.10
2018-01-30T06:29:51.314Z,9.10
2018-01-30T06:32:18.834Z,9.10
2018-01-30T06:34:46.332Z,9.10
2018-01-30T06:37:13.844Z,9.10
2018-01-30T06:39:41.353Z,9.00
2018-01-30T06:42:08.870Z,9.00
2018-01-30T06:44:36.361Z,9.00
2018-01-30T06:47:03.878Z,9.00
2018-01-30T06:49:31.386Z,9.00
2018-01-30T06:51:58.896Z,9.00
2018-01-30T06:54:26.393Z,9.00
2018-01-30T06:56:53.913Z,9.00
2018-01-30T06:59:21.409Z,8.90
2018-01-30T07:01:48.929Z,8.90
2018-01-30T07:04:16.417Z,8.90
2018-01-30T07:06:43.940Z,8.90
2018-01-30T07:09:11.442Z,8.90
2018-01-30T07:11:38.981Z,8.80
2018-01-30T07:14:06.473Z,8.80
2018-01-30T07:16:33.985Z,8.80
2018-01-30T07:19:01.478Z,8.80
2018-01-30T07:21:28.989Z,8.80
2018-01-30T07:23:57.250Z,8.80
2018-01-30T07:26:25.525Z,8.80
2018-01-30T07:28:53.790Z,8.80
2018-01-30T07:31:21.329Z,8.80
2018-01-30T07:33:48.832Z,8.80
2018-01-30T07:36:17.090Z,8.80
2018-01-30T07:38:44.644Z,8.70
2018-01-30T07:41:12.129Z,8.80
2018-01-30T07:43:40.414Z,8.80
2018-01-30T07:46:08.683Z,8.80
2018-01-30T07:48:36.972Z,8.70
2018-01-30T07:51:04.465Z,8.70
2018-01-30T07:53:31.969Z,8.70
2018-01-30T07:56:00.249Z,8.70
2018-01-30T07:58:28.521Z,8.70
2018-01-30T08:00:56.784Z,8.70
2018-01-30T08:03:24.289Z,8.70
2018-01-30T08:05:51.785Z,8.70
2018-01-30T08:08:19.297Z,8.70
2018-01-30T08:10:46.789Z,8.70
2018-01-30T08:13:14.296Z,8.70
2018-01-30T08:15:42.557Z,8.80
2018-01-30T08:18:10.081Z,8.80
2018-01-30T08:20:37.574Z,8.80
2018-01-30T08:23:05.090Z,8.80
2018-01-30T08:25:32.582Z,8.80
2018-01-30T08:28:00.091Z,8.80
2018-01-30T08:30:27.595Z,8.80
2018-01-30T08:32:55.941Z,8.90
2018-01-30T08:35:23.433Z,8.90
2018-01-30T08:37:50.941Z,9.00
2018-01-30T08:40:18.425Z,9.10
2018-01-30T08:42:45.929Z,9.10
2018-01-30T08:45:13.413Z,9.10
2018-01-30T08:47:40.934Z,9.20
2018-01-30T08:50:08.426Z,9.30
2018-01-30T08:52:35.952Z,9.40
2018-01-30T08:55:03.450Z,9.40
2018-01-30T08:57:30.966Z,9.50
2018-01-30T08:59:58.462Z,9.60
2018-01-30T09:02:25.975Z,9.60
2018-01-30T09:04:53.486Z,9.60
2018-01-30T09:07:20.998Z,9.70
2018-01-30T09:09:48.493Z,9.80
2018-01-30T09:12:16.779Z,9.90
2018-01-30T09:14:44.270Z,9.90
2018-01-30T09:17:11.789Z,10.00
2018-01-30T09:19:39.281Z,10.10
2018-01-30T09:22:06.797Z,10.10
2018-01-30T09:24:35.057Z,10.30
2018-01-30T09:27:02.549Z,10.20
2018-01-30T09:29:30.070Z,10.30
2018-01-30T09:31:57.562Z,10.40
2018-01-30T09:34:25.135Z,10.40
2018-01-30T09:36:52.638Z,10.50
2018-01-30T09:39:20.145Z,10.60
2018-01-30T09:41:48.401Z,10.60
2018-01-30T09:44:16.690Z,10.70
2018-01-30T09:46:44.963Z,10.70
2018-01-30T09:49:13.245Z,10.80
2018-01-30T09:51:41.507Z,10.80
2018-01-30T09:54:09.825Z,10.90
2018-01-30T09:56:37.321Z,10.80
2018-01-30T09:59:04.838Z,10.90
2018-01-30T10:01:32.333Z,11.00
2018-01-30T10:03:59.844Z,11.00
2018-01-30T10:06:27.341Z,11.00
2018-01-30T10:08:54.858Z,11.10
2018-01-30T10:11:22.385Z,11.10
2018-01-30T10:13:49.902Z,11.10
2018-01-30T10:16:17.402Z,11.20
2018-01-30T10:18:44.918Z,11.20
2018-01-30T10:21:12.428Z,11.20
2018-01-30T10:23:39.940Z,11.20
2018-01-30T10:26:07.433Z,11.30
2018-01-30T10:28:34.948Z,11.30
2018-01-30T10:31:02.462Z,11.30
2018-01-30T10:33:29.978Z,11.30
2018-01-30T10:35:57.480Z,11.30
2018-01-30T10:38:25.766Z,11.40
2018-01-30T10:40:54.077Z,11.40
2018-01-30T10:43:21.585Z,11.40
2018-01-30T10:45:49.082Z,11.50
2018-01-30T10:48:16.600Z,11.50
2018-01-30T10:50:44.109Z,11.60
2018-01-30T10:53:11.626Z,11.60
2018-01-30T10:55:39.126Z,11.60
2018-01-30T10:58:06.643Z,11.70
2018-01-30T11:00:34.145Z,11.70
2018-01-30T11:03:01.660Z,11.80
2018-01-30T11:05:29.151Z,11.80
2018-01-30T11:07:56.665Z,11.80
2018-01-30T11:10:24.179Z,11.80
2018-01-30T11:12:51.745Z,11.80
2018-01-30T11:15:19.253Z,11.90
2018-01-30T11:17:46.765Z,11.90
2018-01-30T11:20:14.314Z,12.00
2018-01-30T11:22:41.818Z,12.00
2018-01-30T11:25:09.334Z,12.00
2018-01-30T11:27:36.858Z,12.00
2018-01-30T11:30:05.133Z,12.00
2018-01-30T11:32:32.645Z,12.00
2018-01-30T11:35:00.166Z,12.00
2018-01-30T11:37:28.434Z,12.00
2018-01-30T11:39:55.945Z,11.90
2018-01-30T11:42:23.453Z,12.00
2018-01-30T11:44:51.744Z,11.80
2018-01-30T11:47:19.261Z,11.80
2018-01-30T11:49:46.854Z,11.90
2018-01-30T11:52:15.119Z,11.80
2018-01-30T11:54:42.688Z,11.80
2018-01-30T11:57:10.959Z,11.70
2018-01-30T11:59:39.268Z,11.60
2018-01-30T12:02:06.770Z,11.60
2018-01-30T12:04:34.281Z,11.60
2018-01-30T12:07:01.785Z,11.60
2018-01-30T12:09:29.302Z,11.50
2018-01-30T12:11:56.849Z,11.50
2018-01-30T12:14:25.150Z,11.40
2018-01-30T12:16:52.710Z,11.40
2018-01-30T12:19:20.249Z,11.40
2018-01-30T12:21:48.534Z,11.40
2018-01-30T12:24:16.090Z,11.30
2018-01-30T12:26:43.615Z,11.30
2018-01-30T12:29:11.114Z,11.30
2018-01-30T12:31:38.629Z,11.30
2018-01-30T12:34:06.140Z,11.30
2018-01-30T12:36:33.694Z,11.30
2018-01-30T12:39:01.206Z,11.30
2018-01-30T12:41:28.722Z,11.40
2018-01-30T12:43:56.234Z,11.30
2018-01-30T12:46:23.747Z,11.30
2018-01-30T12:48:51.253Z,11.30
2018-01-30T12:51:18.794Z,11.30
2018-01-30T12:53:46.286Z,11.30
2018-01-30T12:56:14.578Z,11.30
2018-01-30T12:58:42.073Z,11.30
2018-01-30T13:01:09.586Z,11.40
2018-01-30T13:03:37.869Z,11.40
2018-01-30T13:06:05.404Z,11.40
2018-01-30T13:08:32.917Z,11.40
2018-01-30T13:11:00.414Z,11.40
2018-01-30T13:13:27.947Z,11.40
2018-01-30T13:15:55.459Z,11.40
2018-01-30T13:18:23.762Z,11.40
2018-01-30T13:20:52.038Z,11.40
2018-01-30T13:23:19.570Z,11.40
2018-01-30T13:25:47.846Z,11.50
2018-01-30T13:28:16.122Z,11.40
2018-01-30T13:30:43.649Z,11.40
2018-01-30T13:33:11.166Z,11.50
2018-01-30T13:35:38.689Z,11.50
2018-01-30T13:38:06.987Z,11.50
2018-01-30T13:40:34.517Z,11.40
2018-01-30T13:43:02.039Z,11.40
2018-01-30T13:45:29.560Z,11.40
2018-01-30T13:47:57.876Z,11.30
2018-01-30T13:50:26.146Z,11.30
2018-01-30T13:52:53.683Z,11.30
2018-01-30T13:55:21.189Z,11.30
2018-01-30T13:57:48.717Z,11.30
2018-01-30T14:00:16.262Z,11.30
2018-01-30T14:02:43.836Z,11.40
2018-01-30T14:05:11.332Z,11.30
2018-01-30T14:07:38.850Z,11.30
2018-01-30T14:10:06.356Z,11.30
2018-01-30T14:12:33.914Z,11.30
2018-01-30T14:15:01.426Z,11.40
2018-01-30T14:17:28.992Z,11.40
2018-01-30T14:19:56.518Z,11.40
2018-01-30T14:22:24.800Z,11.40
2018-01-30T14:24:53.073Z,11.40
2018-01-30T14:27:21.345Z,11.40
2018-01-30T14:29:49.641Z,11.40
2018-01-30T14:32:17.165Z,11.40
2018-01-30T14:34:44.681Z,11.40
2018-01-30T14:37:12.317Z,11.40
2018-01-30T14:39:39.757Z,11.50
2018-01-30T14:42:07.274Z,11.40
2018-01-30T14:44:34.786Z,11.50
2018-01-30T14:47:03.097Z,11.40
2018-01-30T14:49:30.610Z,11.40
2018-01-30T14:51:58.126Z,11.40
2018-01-30T14:54:25.627Z,11.40
2018-01-30T14:56:53.147Z,11.40
2018-01-30T14:59:20.715Z,11.40
2018-01-30T15:01:48.215Z,11.30
2018-01-30T15:04:16.503Z,11.30
2018-01-30T15:06:44.003Z,11.30
2018-01-30T15:09:11.514Z,11.30
2018-01-30T15:11:39.802Z,11.20
2018-01-30T15:14:07.337Z,11.20
2018-01-30T15:16:35.639Z,11.20
2018-01-30T15:19:03.176Z,11.20
2018-01-30T15:21:31.474Z,11.20
2018-01-30T15:23:58.993Z,11.20
2018-01-30T15:26:26.502Z,11.20
2018-01-30T15:28:54.022Z,11.10
2018-01-30T15:31:21.526Z,11.10
2018-01-30T15:33:49.054Z,11.10
2018-01-30T15:36:17.347Z,11.10
2018-01-30T15:38:44.874Z,11.10
2018-01-30T15:41:12.811Z,11.10
2018-01-30T15:43:40.321Z,11.10
2018-01-30T15:46:08.589Z,11.00
2018-01-30T15:48:36.108Z,11.00
2018-01-30T15:51:03.629Z,11.00
2018-01-30T15:53:31.158Z,11.00
2018-01-30T15:55:58.672Z,11.00
2018-01-30T15:58:26.202Z,11.00
2018-01-30T16:00:53.705Z,11.00
2018-01-30T16:03:21.224Z,10.90
2018-01-30T16:05:48.759Z,10.90
2018-01-30T16:08:17.049Z,10.80
2018-01-30T16:10:44.669Z,10.80
2018-01-30T16:13:12.189Z,10.80
2018-01-30T16:15:39.694Z,10.80
2018-01-30T16:18:07.225Z,10.80
2018-01-30T16:20:34.826Z,10.80
2018-01-30T16:23:02.362Z,10.80
2018-01-30T16:25:30.034Z,10.70
2018-01-30T16:27:57.564Z,10.70
2018-01-30T16:30:25.116Z,10.70
2018-01-30T16:32:52.637Z,10.70
2018-01-30T16:35:20.946Z,10.60
2018-01-30T16:37:48.489Z,10.60
2018-01-30T16:40:16.751Z,10.60
2018-01-30T16:42:44.292Z,10.60
2018-01-30T16:45:11.795Z,10.50
2018-01-30T16:47:39.317Z,10.50
2018-01-30T16:50:06.818Z,10.50
2018-01-30T16:52:34.330Z,10.50
2018-01-30T16:55:01.850Z,10.40
2018-01-30T16:57:29.349Z,10.40
2018-01-30T16:59:56.877Z,10.40
2018-01-30T17:02:24.378Z,10.40
2018-01-30T17:04:52.686Z,10.30
2018-01-30T17:07:20.233Z,10.30
2018-01-30T17:09:48.513Z,10.30
2018-01-30T17:12:16.789Z,10.20
2018-01-30T17:14:45.078Z,10.20
2018-01-30T17:17:12.610Z,10.20
2018-01-30T17:19:40.129Z,10.20
2018-01-30T17:22:07.650Z,10.10
2018-01-30T17:24:35.171Z,10.10
2018-01-30T17:27:02.697Z,10.10
2018-01-30T17:29:30.211Z,10.10
2018-01-30T17:31:57.726Z,10.00
2018-01-30T17:34:26.070Z,10.00
2018-01-30T17:36:53.593Z,10.00
2018-01-30T17:39:21.110Z,10.00
2018-01-30T17:41:49.382Z,9.90
2018-01-30T17:44:16.881Z,9.90
2018-01-30T17:46:44.439Z,9.90
2018-01-30T17:49:11.950Z,9.80
2018-01-30T17:51:40.237Z,9.80
2018-01-30T17:54:07.734Z,9.80
2018-01-30T17:56:35.292Z,9.70
2018-01-30T17:59:02.802Z,9.70
2018-01-30T18:01:30.330Z,9.70
2018-01-30T18:03:58.652Z,9.60
2018-01-30T18:06:26.223Z,9.60
2018-01-30T18:08:53.788Z,9.50
2018-01-30T18:11:21.317Z,9.50
2018-01-30T18:13:48.863Z,9.50
2018-01-30T18:16:17.159Z,9.40
2018-01-30T18:18:44.669Z,9.40
2018-01-30T18:21:12.218Z,9.30
2018-01-30T18:23:39.714Z,9.30
2018-01-30T18:26:07.995Z,9.20
2018-01-30T18:28:36.270Z,9.10
2018-01-30T18:31:04.602Z,9.10
2018-01-30T18:33:32.102Z,9.10
2018-01-30T18:36:00.385Z,9.00
2018-01-30T18:38:28.672Z,9.00
2018-01-30T18:40:56.209Z,8.90
2018-01-30T18:43:24.529Z,8.90
2018-01-30T18:45:52.095Z,8.80
2018-01-30T18:48:19.669Z,8.80
2018-01-30T18:50:47.183Z,8.80
2018-01-30T18:53:14.759Z,8.70
2018-01-30T18:55:42.334Z,8.70
2018-01-30T18:58:09.854Z,8.70
2018-01-30T19:00:38.177Z,8.60
2018-01-30T19:03:05.743Z,8.60
2018-01-30T19:05:33.290Z,8.60
2018-01-30T19:08:00.869Z,8.50
2018-01-30T19:10:28.393Z,8.50
2018-01-30T19:12:55.943Z,8.50
2018-01-30T19:15:23.542Z,8.50
2018-01-30T19:17:51.100Z,8.40
2018-01-30T19:20:18.609Z,8.40
2018-01-30T19:22:46.893Z,8.40
2018-01-30T19:25:14.447Z,8.30
2018-01-30T19:27:42.786Z,8.30
2018-01-30T19:30:10.377Z,8.30
2018-01-30T19:32:37.917Z,8.30
2018-01-30T19:35:05.519Z,8.30
2018-01-30T19:37:33.893Z,8.30
2018-01-30T19:40:02.205Z,8.30
2018-01-30T19:42:29.777Z,8.30
2018-01-30T19:44:57.300Z,8.30
2018-01-30T19:47:24.914Z,8.30
2018-01-30T19:49:52.464Z,8.30
2018-01-30T19:52:20.016Z,8.30
2018-01-30T19:54:47.596Z,8.30
2018-01-30T19:57:15.097Z,8.30
2018-01-30T19:59:43.441Z,8.20
2018-01-30T20:02:10.946Z,8.20
2018-01-30T20:04:38.527Z,8.20
2018-01-30T20:07:06.094Z,8.20
2018-01-30T20:09:33.685Z,8.20
2018-01-30T20:12:01.194Z,8.20
2018-01-30T20:14:28.726Z,8.20
2018-01-30T20:16:57.248Z,8.20
2018-01-30T20:19:24.789Z,8.20
2018-01-30T20:21:52.350Z,8.20
2018-01-30T20:24:19.953Z,8.20
2018-01-30T20:26:47.530Z,8.20
2018-01-30T20:29:15.102Z,8.20
2018-01-30T20:31:43.407Z,8.10
2018-01-30T20:34:11.746Z,8.10
2018-01-30T20:36:39.330Z,8.10
2018-01-30T20:39:07.611Z,8.10
2018-01-30T20:41:35.170Z,8.10
2018-01-30T20:44:03.501Z,8.10
2018-01-30T20:46:31.046Z,8.10
2018-01-30T20:48:58.654Z,8.10
2018-01-30T20:51:26.210Z,8.10
2018-01-30T20:53:53.740Z,8.10
2018-01-30T20:56:21.297Z,8.10
2018-01-30T20:58:48.837Z,8.10
2018-01-30T21:01:16.425Z,8.10
2018-01-30T21:03:43.991Z,8.10
2018-01-30T21:06:11.514Z,8.10
2018-01-30T21:08:39.013Z,8.10
2018-01-30T21:11:06.586Z,8.10
2018-01-30T21:13:34.148Z,8.10
2018-01-30T21:16:01.674Z,8.10
2018-01-30T21:18:29.221Z,8.20
2018-01-30T21:20:56.747Z,8.20
2018-01-30T21:23:25.072Z,8.20
2018-01-30T21:25:52.593Z,8.20
2018-01-30T21:28:20.156Z,8.20
2018-01-30T21:30:47.720Z,8.20
2018-01-30T21:33:15.282Z,8.20
2018-01-30T21:35:42.866Z,8.20
2018-01-30T21:38:10.455Z,8.20
2018-01-30T21:40:38.033Z,8.20
2018-01-30T21:43:06.306Z,8.20
2018-01-30T21:45:33.885Z,8.20
2018-01-30T21:48:02.149Z,8.20
2018-01-30T21:50:30.424Z,8.20
2018-01-30T21:52:58.727Z,8.20
2018-01-30T21:55:26.300Z,8.20
2018-01-30T21:57:53.793Z,8.20
2018-01-30T22:00:21.351Z,8.20
2018-01-30T22:02:48.856Z,8.20
2018-01-30T22:05:17.201Z,8.20
2018-01-30T22:07:44.740Z,8.20
2018-01-30T22:10:12.288Z,8.20
2018-01-30T22:12:39.812Z,8.30
2018-01-30T22:15:08.069Z,8.30
2018-01-30T22:17:35.590Z,8.20
2018-01-30T22:20:03.145Z,8.30
2018-01-30T22:22:30.657Z,8.30
2018-01-30T22:24:58.918Z,8.30
2018-01-30T22:27:26.480Z,8.20
2018-01-30T22:29:53.974Z,8.30
2018-01-30T22:32:21.485Z,8.30
2018-01-30T22:34:48.986Z,8.30
2018-01-30T22:37:16.496Z,8.30
2018-01-30T22:39:44.035Z,8.30
2018-01-30T22:42:11.595Z,8.30
2018-01-30T22:44:39.134Z,8.30
